sensor_id;sensor_type;location;lat;lon;timestamp;pressure;altitude;pressure_sealevel;temperature;humidity
31299;BME280;17927;52.350;13.402;2024-01-30T00:01:36;102565.50;;;6.86;45.27
31299;BME280;17927;52.350;13.402;2024-01-30T00:04:02;102566.53;;;6.83;45.27
31299;BME280;17927;52.350;13.402;2024-01-30T00:06:27;102570.22;;;6.81;45.18
31299;BME280;17927;52.350;13.402;2024-01-30T00:08:52;102560.50;;;6.78;45.44
31299;BME280;17927;52.350;13.402;2024-01-30T00:11:18;102558.91;;;6.74;45.23
31299;BME280;17927;52.350;13.402;2024-01-30T00:13:43;102561.72;;;6.71;45.58
31299;BME280;17927;52.350;13.402;2024-01-30T00:16:19;102555.59;;;6.69;45.65
31299;BME280;17927;52.350;13.402;2024-01-30T00:18:45;102561.94;;;6.66;45.31
31299;BME280;17927;52.350;13.402;2024-01-30T00:21:10;102555.78;;;6.64;45.60
31299;BME280;17927;52.350;13.402;2024-01-30T00:23:36;102556.81;;;6.62;45.45
31299;BME280;17927;52.350;13.402;2024-01-30T00:26:01;102562.31;;;6.59;45.46
31299;BME280;17927;52.350;13.402;2024-01-30T00:28:26;102563.34;;;6.56;45.54
31299;BME280;17927;52.350;13.402;2024-01-30T00:30:51;102554.47;;;6.54;45.40
31299;BME280;17927;52.350;13.402;2024-01-30T00:33:17;102550.19;;;6.50;45.71
31299;BME280;17927;52.350;13.402;2024-01-30T00:35:42;102566.44;;;6.47;45.42
31299;BME280;17927;52.350;13.402;2024-01-30T00:38:07;102565.66;;;6.45;45.57
31299;BME280;17927;52.350;13.402;2024-01-30T00:40:33;102560.34;;;6.43;45.87
31299;BME280;17927;52.350;13.402;2024-01-30T00:42:58;102554.25;;;6.39;45.89
31299;BME280;17927;52.350;13.402;2024-01-30T00:45:23;102560.56;;;6.38;45.62
31299;BME280;17927;52.350;13.402;2024-01-30T00:47:48;102557.09;;;6.36;46.00
31299;BME280;17927;52.350;13.402;2024-01-30T00:50:14;102553.59;;;6.34;45.75
31299;BME280;17927;52.350;13.402;2024-01-30T00:52:39;102559.06;;;6.33;45.81
31299;BME280;17927;52.350;13.402;2024-01-30T00:55:06;102561.78;;;6.31;46.06
31299;BME280;17927;52.350;13.402;2024-01-30T00:57:31;102560.06;;;6.30;46.01
31299;BME280;17927;52.350;13.402;2024-01-30T00:59:57;102550.28;;;6.29;45.87
31299;BME280;17927;52.350;13.402;2024-01-30T01:02:22;102545.84;;;6.28;45.99
31299;BME280;17927;52.350;13.402;2024-01-30T01:04:47;102545.84;;;6.28;46.14
31299;BME280;17927;52.350;13.402;2024-01-30T01:07:13;102557.44;;;6.29;46.31
31299;BME280;17927;52.350;13.402;2024-01-30T01:09:38;102557.44;;;6.29;46.14
31299;BME280;17927;52.350;13.402;2024-01-30T01:12:03;102555.66;;;6.29;46.02
31299;BME280;17927;52.350;13.402;2024-01-30T01:14:29;102554.75;;;6.29;46.08
31299;BME280;17927;52.350;13.402;2024-01-30T01:16:55;102556.59;;;6.28;46.17
31299;BME280;17927;52.350;13.402;2024-01-30T01:19:20;102552.97;;;6.29;46.42
31299;BME280;17927;52.350;13.402;2024-01-30T01:21:45;102548.44;;;6.30;46.00
31299;BME280;17927;52.350;13.402;2024-01-30T01:24:10;102551.22;;;6.28;46.06
31299;BME280;17927;52.350;13.402;2024-01-30T01:26:36;102560.22;;;6.27;46.06
31299;BME280;17927;52.350;13.402;2024-01-30T01:29:01;102547.72;;;6.26;46.12
31299;BME280;17927;52.350;13.402;2024-01-30T01:31:26;102554.03;;;6.25;46.34
31299;BME280;17927;52.350;13.402;2024-01-30T01:33:54;102555.84;;;6.24;46.25
31299;BME280;17927;52.350;13.402;2024-01-30T01:36:19;102553.22;;;6.23;46.47
31299;BME280;17927;52.350;13.402;2024-01-30T01:38:54;102553.22;;;6.23;46.39
31299;BME280;17927;52.350;13.402;2024-01-30T01:41:19;102550.63;;;6.21;46.61
31299;BME280;17927;52.350;13.402;2024-01-30T01:43:44;102550.53;;;6.23;46.66
31299;BME280;17927;52.350;13.402;2024-01-30T01:46:10;102552.28;;;6.24;46.38
31299;BME280;17927;52.350;13.402;2024-01-30T01:48:36;102545.97;;;6.25;46.48
31299;BME280;17927;52.350;13.402;2024-01-30T01:51:02;102551.34;;;6.25;46.71
31299;BME280;17927;52.350;13.402;2024-01-30T01:53:27;102552.28;;;6.24;46.72
31299;BME280;17927;52.350;13.402;2024-01-30T01:55:54;102543.28;;;6.25;46.52
31299;BME280;17927;52.350;13.402;2024-01-30T01:58:21;102544.16;;;6.25;46.43
31299;BME280;17927;52.350;13.402;2024-01-30T02:00:47;102540.63;;;6.25;46.68
31299;BME280;17927;52.350;13.402;2024-01-30T02:03:13;102545.03;;;6.26;46.87
31299;BME280;17927;52.350;13.402;2024-01-30T02:05:39;102550.47;;;6.24;46.90
31299;BME280;17927;52.350;13.402;2024-01-30T02:08:06;102544.25;;;6.24;46.54
31299;BME280;17927;52.350;13.402;2024-01-30T02:10:31;102540.63;;;6.25;46.50
31299;BME280;17927;52.350;13.402;2024-01-30T02:12:57;102541.56;;;6.24;46.71
31299;BME280;17927;52.350;13.402;2024-01-30T02:15:22;102537.13;;;6.23;46.83
31299;BME280;17927;52.350;13.402;2024-01-30T02:17:47;102538.06;;;6.22;46.87
31299;BME280;17927;52.350;13.402;2024-01-30T02:20:13;102542.50;;;6.23;46.85
31299;BME280;17927;52.350;13.402;2024-01-30T02:22:39;102541.56;;;6.24;46.87
31299;BME280;17927;52.350;13.402;2024-01-30T02:25:05;102548.66;;;6.25;46.95
31299;BME280;17927;52.350;13.402;2024-01-30T02:27:31;102537.00;;;6.26;46.79
31299;BME280;17927;52.350;13.402;2024-01-30T02:29:56;102546.78;;;6.27;46.87
31299;BME280;17927;52.350;13.402;2024-01-30T02:32:21;102548.59;;;6.27;46.69
31299;BME280;17927;52.350;13.402;2024-01-30T02:34:46;102542.28;;;6.28;47.03
31299;BME280;17927;52.350;13.402;2024-01-30T02:37:12;102540.53;;;6.27;46.93
31299;BME280;17927;52.350;13.402;2024-01-30T02:39:37;102534.31;;;6.26;46.92
31299;BME280;17927;52.350;13.402;2024-01-30T02:42:02;102549.59;;;6.24;46.77
31299;BME280;17927;52.350;13.402;2024-01-30T02:44:27;102539.72;;;6.24;46.91
31299;BME280;17927;52.350;13.402;2024-01-30T02:46:53;102533.50;;;6.24;47.10
31299;BME280;17927;52.350;13.402;2024-01-30T02:49:19;102528.13;;;6.24;46.99
31299;BME280;17927;52.350;13.402;2024-01-30T02:51:44;102527.34;;;6.22;46.92
31299;BME280;17927;52.350;13.402;2024-01-30T02:54:10;102540.84;;;6.20;47.03
31299;BME280;17927;52.350;13.402;2024-01-30T02:56:35;102536.47;;;6.18;46.96
31299;BME280;17927;52.350;13.402;2024-01-30T02:59:00;102535.66;;;6.16;46.80
31299;BME280;17927;52.350;13.402;2024-01-30T03:01:25;102525.94;;;6.13;46.87
31299;BME280;17927;52.350;13.402;2024-01-30T03:03:51;102527.91;;;6.09;46.82
31299;BME280;17927;52.350;13.402;2024-01-30T03:06:16;102531.53;;;6.08;46.86
31299;BME280;17927;52.350;13.402;2024-01-30T03:08:42;102528.13;;;6.05;46.91
31299;BME280;17927;52.350;13.402;2024-01-30T03:11:08;102533.47;;;6.05;47.18
31299;BME280;17927;52.350;13.402;2024-01-30T03:13:33;102523.81;;;6.01;46.95
31299;BME280;17927;52.350;13.402;2024-01-30T03:15:58;102524.75;;;6.00;47.33
31299;BME280;17927;52.350;13.402;2024-01-30T03:18:23;102520.38;;;5.97;47.29
31299;BME280;17927;52.350;13.402;2024-01-30T03:20:49;102524.06;;;5.94;47.08
31299;BME280;17927;52.350;13.402;2024-01-30T03:23:14;102521.47;;;5.93;47.37
31299;BME280;17927;52.350;13.402;2024-01-30T03:25:39;102523.34;;;5.91;47.39
31299;BME280;17927;52.350;13.402;2024-01-30T03:28:04;102523.41;;;5.89;47.17
31299;BME280;17927;52.350;13.402;2024-01-30T03:30:30;102522.53;;;5.89;47.30
31299;BME280;17927;52.350;13.402;2024-01-30T03:32:55;102519.03;;;5.87;47.53
31299;BME280;17927;52.350;13.402;2024-01-30T03:35:20;102516.34;;;5.87;47.33
31299;BME280;17927;52.350;13.402;2024-01-30T03:37:46;102515.50;;;5.86;47.34
31299;BME280;17927;52.350;13.402;2024-01-30T03:40:11;102517.28;;;5.86;47.32
31299;BME280;17927;52.350;13.402;2024-01-30T03:42:36;102518.19;;;5.86;47.56
31299;BME280;17927;52.350;13.402;2024-01-30T03:45:02;102511.94;;;5.86;47.38
31299;BME280;17927;52.350;13.402;2024-01-30T03:47:27;102512.81;;;5.86;47.61
31299;BME280;17927;52.350;13.402;2024-01-30T03:49:52;102510.13;;;5.86;47.46
31299;BME280;17927;52.350;13.402;2024-01-30T03:52:18;102516.44;;;5.85;47.59
31299;BME280;17927;52.350;13.402;2024-01-30T03:54:43;102510.13;;;5.86;47.52
31299;BME280;17927;52.350;13.402;2024-01-30T03:57:08;102512.81;;;5.86;47.55
31299;BME280;17927;52.350;13.402;2024-01-30T03:59:33;102511.94;;;5.86;47.69
31299;BME280;17927;52.350;13.402;2024-01-30T04:01:59;102521.81;;;5.85;47.79
31299;BME280;17927;52.350;13.402;2024-01-30T04:04:24;102510.25;;;5.83;47.59
31299;BME280;17927;52.350;13.402;2024-01-30T04:06:50;102512.94;;;5.83;47.75
31299;BME280;17927;52.350;13.402;2024-01-30T04:09:15;102504.19;;;5.79;47.77
31299;BME280;17927;52.350;13.402;2024-01-30T04:11:41;102504.22;;;5.78;47.76
31299;BME280;17927;52.350;13.402;2024-01-30T04:14:07;102507.78;;;5.78;47.67
31299;BME280;17927;52.350;13.402;2024-01-30T04:16:32;102504.31;;;5.76;47.68
31299;BME280;17927;52.350;13.402;2024-01-30T04:18:58;102507.00;;;5.76;47.62
31299;BME280;17927;52.350;13.402;2024-01-30T04:21:23;102510.69;;;5.74;47.64
31299;BME280;17927;52.350;13.402;2024-01-30T04:23:48;102498.28;;;5.71;47.95
31299;BME280;17927;52.350;13.402;2024-01-30T04:26:14;102507.13;;;5.73;47.90
31299;BME280;17927;52.350;13.402;2024-01-30T04:28:41;102499.97;;;5.74;47.84
31299;BME280;17927;52.350;13.402;2024-01-30T04:31:07;102507.94;;;5.75;48.07
31299;BME280;17927;52.350;13.402;2024-01-30T04:33:32;102501.75;;;5.73;48.02
31299;BME280;17927;52.350;13.402;2024-01-30T04:35:57;102501.72;;;5.75;48.11
31299;BME280;17927;52.350;13.402;2024-01-30T04:38:22;102499.97;;;5.74;47.89
31299;BME280;17927;52.350;13.402;2024-01-30T04:40:48;102502.69;;;5.72;47.87
31299;BME280;17927;52.350;13.402;2024-01-30T04:43:13;102499.16;;;5.72;48.08
31299;BME280;17927;52.350;13.402;2024-01-30T04:45:39;102498.28;;;5.71;48.10
31299;BME280;17927;52.350;13.402;2024-01-30T04:48:05;102501.88;;;5.70;47.88
31299;BME280;17927;52.350;13.402;2024-01-30T04:50:30;102507.34;;;5.69;48.28
31299;BME280;17927;52.350;13.402;2024-01-30T04:52:55;102510.94;;;5.68;48.02
31299;BME280;17927;52.350;13.402;2024-01-30T04:55:20;102501.16;;;5.67;48.00
31299;BME280;17927;52.350;13.402;2024-01-30T04:57:46;102495.78;;;5.67;48.13
31299;BME280;17927;52.350;13.402;2024-01-30T05:00:11;102503.84;;;5.67;48.12
31299;BME280;17927;52.350;13.402;2024-01-30T05:02:37;102500.31;;;5.66;48.54
31299;BME280;17927;52.350;13.402;2024-01-30T05:05:03;102504.78;;;5.66;48.41
31299;BME280;17927;52.350;13.402;2024-01-30T05:07:28;102512.78;;;5.67;48.23
31299;BME280;17927;52.350;13.402;2024-01-30T05:09:53;102505.66;;;5.66;48.36
31299;BME280;17927;52.350;13.402;2024-01-30T05:12:19;102497.53;;;5.68;48.29
31299;BME280;17927;52.350;13.402;2024-01-30T05:14:44;102501.97;;;5.69;48.62
31299;BME280;17927;52.350;13.402;2024-01-30T05:17:10;102501.13;;;5.68;48.56
31299;BME280;17927;52.350;13.402;2024-01-30T05:19:37;102502.91;;;5.68;48.29
31299;BME280;17927;52.350;13.402;2024-01-30T05:22:03;102511.84;;;5.68;48.12
31299;BME280;17927;52.350;13.402;2024-01-30T05:24:28;102501.13;;;5.68;48.41
31299;BME280;17927;52.350;13.402;2024-01-30T05:26:53;102503.78;;;5.68;48.62
31299;BME280;17927;52.350;13.402;2024-01-30T05:29:18;102507.25;;;5.70;48.55
31299;BME280;17927;52.350;13.402;2024-01-30T05:31:44;102499.28;;;5.69;48.82
31299;BME280;17927;52.350;13.402;2024-01-30T05:34:10;102508.28;;;5.68;48.58
31299;BME280;17927;52.350;13.402;2024-01-30T05:36:35;102502.06;;;5.67;48.62
31299;BME280;17927;52.350;13.402;2024-01-30T05:39:00;102508.28;;;5.68;48.65
31299;BME280;17927;52.350;13.402;2024-01-30T05:41:26;102504.66;;;5.69;48.53
31299;BME280;17927;52.350;13.402;2024-01-30T05:43:51;102499.19;;;5.70;48.63
31299;BME280;17927;52.350;13.402;2024-01-30T05:46:16;102499.16;;;5.72;48.76
31299;BME280;17927;52.350;13.402;2024-01-30T05:48:41;102497.28;;;5.74;48.61
31299;BME280;17927;52.350;13.402;2024-01-30T05:51:07;102498.09;;;5.76;48.59
31299;BME280;17927;52.350;13.402;2024-01-30T05:53:33;102504.19;;;5.79;48.67
31299;BME280;17927;52.350;13.402;2024-01-30T05:56:01;102503.16;;;5.82;48.85
31299;BME280;17927;52.350;13.402;2024-01-30T05:58:26;102492.38;;;5.84;48.66
31299;BME280;17927;52.350;13.402;2024-01-30T06:00:51;102502.09;;;5.86;48.71
31299;BME280;17927;52.350;13.402;2024-01-30T06:03:17;102502.00;;;5.88;48.54
31299;BME280;17927;52.350;13.402;2024-01-30T06:05:42;102496.63;;;5.88;48.99
31299;BME280;17927;52.350;13.402;2024-01-30T06:08:07;102493.09;;;5.87;48.91
31299;BME280;17927;52.350;13.402;2024-01-30T06:10:32;102490.34;;;5.89;48.65
31299;BME280;17927;52.350;13.402;2024-01-30T06:12:58;102502.81;;;5.90;48.92
31299;BME280;17927;52.350;13.402;2024-01-30T06:15:23;102491.22;;;5.89;48.81
31299;BME280;17927;52.350;13.402;2024-01-30T06:17:48;102495.56;;;5.92;49.02
31299;BME280;17927;52.350;13.402;2024-01-30T06:20:13;102486.59;;;5.93;49.00
31299;BME280;17927;52.350;13.402;2024-01-30T06:22:39;102488.25;;;5.95;48.78
31299;BME280;17927;52.350;13.402;2024-01-30T06:25:04;102493.47;;;5.99;49.07
31299;BME280;17927;52.350;13.402;2024-01-30T06:27:29;102489.94;;;5.98;48.67
31299;BME280;17927;52.350;13.402;2024-01-30T06:29:55;102488.06;;;6.00;49.02
31299;BME280;17927;52.350;13.402;2024-01-30T06:32:20;102481.75;;;6.01;49.13
31299;BME280;17927;52.350;13.402;2024-01-30T06:34:45;102480.00;;;6.00;48.72
31299;BME280;17927;52.350;13.402;2024-01-30T06:37:10;102486.31;;;5.99;48.74
31299;BME280;17927;52.350;13.402;2024-01-30T06:39:36;102489.00;;;5.99;49.07
31299;BME280;17927;52.350;13.402;2024-01-30T06:42:01;102474.69;;;5.99;48.94
31299;BME280;17927;52.350;13.402;2024-01-30T06:44:26;102475.63;;;5.98;48.83
31299;BME280;17927;52.350;13.402;2024-01-30T06:46:52;102485.50;;;5.97;49.11
31299;BME280;17927;52.350;13.402;2024-01-30T06:49:17;102473.88;;;5.97;49.11
31299;BME280;17927;52.350;13.402;2024-01-30T06:51:42;102475.63;;;5.98;49.20
31299;BME280;17927;52.350;13.402;2024-01-30T06:54:07;102467.66;;;5.96;49.15
31299;BME280;17927;52.350;13.402;2024-01-30T06:56:33;102474.78;;;5.97;49.37
31299;BME280;17927;52.350;13.402;2024-01-30T06:58:59;102485.44;;;5.99;49.21
31299;BME280;17927;52.350;13.402;2024-01-30T07:01:28;102472.91;;;5.99;49.27
31299;BME280;17927;52.350;13.402;2024-01-30T07:03:54;102476.38;;;6.01;49.15
31299;BME280;17927;52.350;13.402;2024-01-30T07:06:20;102477.19;;;6.03;49.18
31299;BME280;17927;52.350;13.402;2024-01-30T07:08:45;102480.63;;;6.07;49.17
31299;BME280;17927;52.350;13.402;2024-01-30T07:11:10;102481.41;;;6.09;49.44
31299;BME280;17927;52.350;13.402;2024-01-30T07:13:37;102486.56;;;6.14;49.23
31299;BME280;17927;52.350;13.402;2024-01-30T07:16:02;102486.50;;;6.15;49.46
31299;BME280;17927;52.350;13.402;2024-01-30T07:18:28;102481.84;;;6.19;49.28
31299;BME280;17927;52.350;13.402;2024-01-30T07:20:53;102486.34;;;6.18;49.24
31299;BME280;17927;52.350;13.402;2024-01-30T07:23:18;102481.69;;;6.22;49.46
31299;BME280;17927;52.350;13.402;2024-01-30T07:25:44;102481.56;;;6.25;49.29
31299;BME280;17927;52.350;13.402;2024-01-30T07:28:10;102481.44;;;6.28;49.68
31299;BME280;17927;52.350;13.402;2024-01-30T07:30:36;102479.47;;;6.32;49.50
31299;BME280;17927;52.350;13.402;2024-01-30T07:33:01;102473.88;;;6.36;49.49
31299;BME280;17927;52.350;13.402;2024-01-30T07:35:26;102468.34;;;6.39;49.69
31299;BME280;17927;52.350;13.402;2024-01-30T07:37:52;102476.97;;;6.46;49.44
31299;BME280;17927;52.350;13.402;2024-01-30T07:40:17;102471.38;;;6.51;49.58
31299;BME280;17927;52.350;13.402;2024-01-30T07:42:43;102466.66;;;6.56;49.54
31299;BME280;17927;52.350;13.402;2024-01-30T07:45:08;102470.88;;;6.62;49.82
31299;BME280;17927;52.350;13.402;2024-01-30T07:47:33;102468.88;;;6.65;49.86
31299;BME280;17927;52.350;13.402;2024-01-30T07:49:59;102469.63;;;6.69;49.67
31299;BME280;17927;52.350;13.402;2024-01-30T07:52:24;102472.94;;;6.74;49.95
31299;BME280;17927;52.350;13.402;2024-01-30T07:54:50;102478.03;;;6.80;49.84
31299;BME280;17927;52.350;13.402;2024-01-30T07:57:16;102478.66;;;6.85;49.98
31299;BME280;17927;52.350;13.402;2024-01-30T07:59:42;102482.88;;;6.91;49.90
31299;BME280;17927;52.350;13.402;2024-01-30T08:02:09;102478.06;;;6.98;49.61
31299;BME280;17927;52.350;13.402;2024-01-30T08:04:34;102469.75;;;7.03;49.59
31299;BME280;17927;52.350;13.402;2024-01-30T08:06:59;102471.25;;;7.08;49.83
31299;BME280;17927;52.350;13.402;2024-01-30T08:09:24;102469.22;;;7.13;49.73
31299;BME280;17927;52.350;13.402;2024-01-30T08:11:50;102467.94;;;7.21;49.73
31299;BME280;17927;52.350;13.402;2024-01-30T08:14:15;102473.94;;;7.26;49.96
31299;BME280;17927;52.350;13.402;2024-01-30T08:16:40;102472.75;;;7.31;49.87
31299;BME280;17927;52.350;13.402;2024-01-30T08:19:05;102468.03;;;7.37;49.63
31299;BME280;17927;52.350;13.402;2024-01-30T08:21:31;102465.94;;;7.42;49.62
31299;BME280;17927;52.350;13.402;2024-01-30T08:24:01;102462.00;;;7.49;49.63
31299;BME280;17927;52.350;13.402;2024-01-30T08:26:26;102464.34;;;7.55;49.63
31299;BME280;17927;52.350;13.402;2024-01-30T08:28:51;102466.81;;;7.60;49.50
31299;BME280;17927;52.350;13.402;2024-01-30T08:31:18;102456.66;;;7.65;49.30
31299;BME280;17927;52.350;13.402;2024-01-30T08:33:43;102454.59;;;7.70;49.53
31299;BME280;17927;52.350;13.402;2024-01-30T08:36:09;102450.69;;;7.76;49.53
31299;BME280;17927;52.350;13.402;2024-01-30T08:38:34;102450.38;;;7.82;49.45
31299;BME280;17927;52.350;13.402;2024-01-30T08:40:59;102441.16;;;7.86;49.21
31299;BME280;17927;52.350;13.402;2024-01-30T08:43:24;102444.41;;;7.93;49.17
31299;BME280;17927;52.350;13.402;2024-01-30T08:45:50;102433.28;;;7.99;49.25
31299;BME280;17927;52.350;13.402;2024-01-30T08:48:15;102437.56;;;8.03;49.11
31299;BME280;17927;52.350;13.402;2024-01-30T08:50:40;102431.84;;;8.10;48.97
31299;BME280;17927;52.350;13.402;2024-01-30T08:53:06;102438.78;;;8.14;48.88
31299;BME280;17927;52.350;13.402;2024-01-30T08:55:31;102442.94;;;8.19;48.84
31299;BME280;17927;52.350;13.402;2024-01-30T08:57:56;102447.22;;;8.23;48.89
31299;BME280;17927;52.350;13.402;2024-01-30T09:00:22;102456.69;;;8.31;48.63
31299;BME280;17927;52.350;13.402;2024-01-30T09:02:47;102455.53;;;8.35;48.66
31299;BME280;17927;52.350;13.402;2024-01-30T09:05:12;102460.59;;;8.41;48.89
31299;BME280;17927;52.350;13.402;2024-01-30T09:07:37;102460.25;;;8.47;48.51
31299;BME280;17927;52.350;13.402;2024-01-30T09:10:03;102451.84;;;8.53;48.61
31299;BME280;17927;52.350;13.402;2024-01-30T09:12:29;102448.03;;;8.58;48.41
31299;BME280;17927;52.350;13.402;2024-01-30T09:14:54;102441.41;;;8.63;48.53
31299;BME280;17927;52.350;13.402;2024-01-30T09:17:20;102445.56;;;8.69;48.36
31299;BME280;17927;52.350;13.402;2024-01-30T09:19:46;102450.59;;;8.75;48.13
31299;BME280;17927;52.350;13.402;2024-01-30T09:22:11;102445.91;;;8.79;48.26
31299;BME280;17927;52.350;13.402;2024-01-30T09:24:36;102453.53;;;8.87;48.16
31299;BME280;17927;52.350;13.402;2024-01-30T09:27:01;102447.97;;;8.90;48.10
31299;BME280;17927;52.350;13.402;2024-01-30T09:29:26;102454.81;;;8.95;48.00
31299;BME280;17927;52.350;13.402;2024-01-30T09:31:52;102449.16;;;9.00;47.94
31299;BME280;17927;52.350;13.402;2024-01-30T09:34:17;102449.75;;;9.05;48.03
31299;BME280;17927;52.350;13.402;2024-01-30T09:36:42;102452.16;;;9.10;47.91
31299;BME280;17927;52.350;13.402;2024-01-30T09:39:07;102445.53;;;9.16;47.67
31299;BME280;17927;52.350;13.402;2024-01-30T09:41:40;102447.00;;;9.21;47.69
31299;BME280;17927;52.350;13.402;2024-01-30T09:44:11;102457.53;;;9.26;47.43
31299;BME280;17927;52.350;13.402;2024-01-30T09:46:37;102447.22;;;9.33;47.64
31299;BME280;17927;52.350;13.402;2024-01-30T09:49:03;102449.53;;;9.39;47.58
31299;BME280;17927;52.350;13.402;2024-01-30T09:51:29;102445.50;;;9.46;47.45
31299;BME280;17927;52.350;13.402;2024-01-30T09:53:55;102439.81;;;9.51;47.16
31299;BME280;17927;52.350;13.402;2024-01-30T09:56:21;102443.97;;;9.56;47.09
31299;BME280;17927;52.350;13.402;2024-01-30T09:58:47;102440.03;;;9.62;47.14
31299;BME280;17927;52.350;13.402;2024-01-30T10:01:13;102433.38;;;9.68;46.69
31299;BME280;17927;52.350;13.402;2024-01-30T10:03:43;102444.88;;;9.71;46.93
31299;BME280;17927;52.350;13.402;2024-01-30T10:06:09;102436.28;;;9.79;46.26
31299;BME280;17927;52.350;13.402;2024-01-30T10:08:35;102443.97;;;9.85;46.34
31299;BME280;17927;52.350;13.402;2024-01-30T10:11:00;102437.31;;;9.91;45.96
31299;BME280;17927;52.350;13.402;2024-01-30T10:13:26;102432.38;;;9.98;46.26
31299;BME280;17927;52.350;13.402;2024-01-30T10:15:52;102429.31;;;10.04;45.97
31299;BME280;17927;52.350;13.402;2024-01-30T10:18:17;102428.94;;;10.10;45.94
31299;BME280;17927;52.350;13.402;2024-01-30T10:20:43;102428.50;;;10.16;45.82
31299;BME280;17927;52.350;13.402;2024-01-30T10:23:08;102427.25;;;10.22;45.68
31299;BME280;17927;52.350;13.402;2024-01-30T10:25:34;102425.91;;;10.29;45.49
31299;BME280;17927;52.350;13.402;2024-01-30T10:27:59;102425.47;;;10.35;45.57
31299;BME280;17927;52.350;13.402;2024-01-30T10:30:25;102418.75;;;10.43;45.45
31299;BME280;17927;52.350;13.402;2024-01-30T10:32:50;102422.03;;;10.48;45.25
31299;BME280;17927;52.350;13.402;2024-01-30T10:35:16;102414.38;;;10.55;45.01
31299;BME280;17927;52.350;13.402;2024-01-30T10:37:43;102414.81;;;10.61;44.79
31299;BME280;17927;52.350;13.402;2024-01-30T10:40:13;102420.69;;;10.68;45.24
31299;BME280;17927;52.350;13.402;2024-01-30T10:42:42;102416.59;;;10.75;44.97
31299;BME280;17927;52.350;13.402;2024-01-30T10:45:12;102413.47;;;10.81;44.58
31299;BME280;17927;52.350;13.402;2024-01-30T10:47:40;102417.59;;;10.87;44.82
31299;BME280;17927;52.350;13.402;2024-01-30T10:50:07;102412.75;;;10.92;44.76
31299;BME280;17927;52.350;13.402;2024-01-30T10:52:33;102404.31;;;10.97;44.70
31299;BME280;17927;52.350;13.402;2024-01-30T10:54:58;102411.25;;;11.01;44.24
31299;BME280;17927;52.350;13.402;2024-01-30T10:57:25;102408.34;;;11.04;44.58
31299;BME280;17927;52.350;13.402;2024-01-30T10:59:53;102413.50;;;11.07;44.33
31299;BME280;17927;52.350;13.402;2024-01-30T11:02:20;102408.88;;;11.09;44.33
31299;BME280;17927;52.350;13.402;2024-01-30T11:04:46;102414.19;;;11.11;44.05
31299;BME280;17927;52.350;13.402;2024-01-30T11:07:17;102399.59;;;11.14;44.01
31299;BME280;17927;52.350;13.402;2024-01-30T11:09:53;102408.66;;;11.12;44.03
31299;BME280;17927;52.350;13.402;2024-01-30T11:12:23;102408.47;;;11.16;44.03
31299;BME280;17927;52.350;13.402;2024-01-30T11:14:49;102406.53;;;11.18;44.08
31299;BME280;17927;52.350;13.402;2024-01-30T11:17:15;102401.88;;;11.20;44.15
31299;BME280;17927;52.350;13.402;2024-01-30T11:19:41;102398.06;;;11.22;44.16
31299;BME280;17927;52.350;13.402;2024-01-30T11:22:07;102403.28;;;11.25;44.13
31299;BME280;17927;52.350;13.402;2024-01-30T11:24:42;102401.09;;;11.31;44.04
31299;BME280;17927;52.350;13.402;2024-01-30T11:27:10;102392.78;;;11.34;44.12
31299;BME280;17927;52.350;13.402;2024-01-30T11:29:35;102396.88;;;11.39;44.42
31299;BME280;17927;52.350;13.402;2024-01-30T11:32:01;102389.19;;;11.46;44.32
31299;BME280;17927;52.350;13.402;2024-01-30T11:34:27;102392.44;;;11.51;44.02
31299;BME280;17927;52.350;13.402;2024-01-30T11:36:56;102394.06;;;11.54;44.05
31299;BME280;17927;52.350;13.402;2024-01-30T11:39:26;102385.72;;;11.57;43.77
31299;BME280;17927;52.350;13.402;2024-01-30T11:41:52;102389.84;;;11.63;43.95
31299;BME280;17927;52.350;13.402;2024-01-30T11:44:19;102382.25;;;11.68;43.85
31299;BME280;17927;52.350;13.402;2024-01-30T11:46:45;102383.88;;;11.70;43.82
31299;BME280;17927;52.350;13.402;2024-01-30T11:49:11;102388.72;;;11.78;43.95
31299;BME280;17927;52.350;13.402;2024-01-30T11:51:37;102380.28;;;11.83;43.76
31299;BME280;17927;52.350;13.402;2024-01-30T11:54:02;102389.81;;;11.88;43.71
31299;BME280;17927;52.350;13.402;2024-01-30T11:56:28;102388.50;;;11.94;43.96
31299;BME280;17927;52.350;13.402;2024-01-30T11:58:53;102385.47;;;11.99;43.95
31299;BME280;17927;52.350;13.402;2024-01-30T12:01:19;102376.91;;;12.05;44.07
31299;BME280;17927;52.350;13.402;2024-01-30T12:03:50;102385.44;;;12.12;43.85
31299;BME280;17927;52.350;13.402;2024-01-30T12:06:16;102383.16;;;12.18;43.71
31299;BME280;17927;52.350;13.402;2024-01-30T12:08:42;102371.97;;;12.23;43.58
31299;BME280;17927;52.350;13.402;2024-01-30T12:11:07;102370.63;;;12.29;43.50
31299;BME280;17927;52.350;13.402;2024-01-30T12:13:32;102371.50;;;12.29;43.66
31299;BME280;17927;52.350;13.402;2024-01-30T12:15:58;102366.81;;;12.31;43.40
31299;BME280;17927;52.350;13.402;2024-01-30T12:18:23;102357.63;;;12.34;43.52
31299;BME280;17927;52.350;13.402;2024-01-30T12:21:01;102358.38;;;12.36;43.53
31299;BME280;17927;52.350;13.402;2024-01-30T12:23:27;102361.78;;;12.38;43.84
31299;BME280;17927;52.350;13.402;2024-01-30T12:25:53;102367.75;;;12.43;43.59
31299;BME280;17927;52.350;13.402;2024-01-30T12:28:19;102352.22;;;12.45;43.65
31299;BME280;17927;52.350;13.402;2024-01-30T12:30:44;102358.28;;;12.49;43.57
31299;BME280;17927;52.350;13.402;2024-01-30T12:33:16;102354.38;;;12.53;43.64
31299;BME280;17927;52.350;13.402;2024-01-30T12:35:45;102343.28;;;12.56;43.66
31299;BME280;17927;52.350;13.402;2024-01-30T12:38:10;102342.94;;;12.61;43.62
31299;BME280;17927;52.350;13.402;2024-01-30T12:40:36;102339.00;;;12.65;43.83